createdAt,value
2018-02-24T00:00:16.442Z,-0.16
2018-02-24T00:01:16.420Z,-0.27
2018-02-24T00:02:16.386Z,-0.21
2018-02-24T00:03:16.368Z,-0.13
2018-02-24T00:04:16.341Z,-0.17
2018-02-24T00:05:16.323Z,-0.22
2018-02-24T00:06:16.289Z,-0.31
2018-02-24T00:07:16.270Z,-0.27
2018-02-24T00:08:16.237Z,-0.39
2018-02-24T00:09:16.212Z,-0.25
2018-02-24T00:10:16.189Z,-0.29
2018-02-24T00:11:16.178Z,-0.20
2018-02-24T00:12:16.139Z,-0.21
2018-02-24T00:13:16.111Z,-0.16
2018-02-24T00:14:16.087Z,-0.17
2018-02-24T00:15:16.067Z,-0.09
2018-02-24T00:16:16.038Z,-0.10
2018-02-24T00:17:16.010Z,-0.06
2018-02-24T00:18:15.987Z,-0.13
2018-02-24T00:19:15.962Z,-0.13
2018-02-24T00:20:15.934Z,-0.03
2018-02-24T00:21:15.911Z,-0.06
2018-02-24T00:22:15.885Z,-0.16
2018-02-24T00:23:15.865Z,-0.10
2018-02-24T00:24:15.834Z,-0.31
2018-02-24T00:25:15.813Z,-0.20
2018-02-24T00:26:15.796Z,-0.21
2018-02-24T00:27:15.758Z,-0.38
2018-02-24T00:28:15.734Z,-0.29
2018-02-24T00:29:15.714Z,-0.39
2018-02-24T00:30:15.688Z,-0.32
2018-02-24T00:31:15.660Z,-0.34
2018-02-24T00:32:15.639Z,-0.21
2018-02-24T00:33:15.609Z,-0.22
2018-02-24T00:34:15.583Z,-0.20
2018-02-24T00:35:15.558Z,-0.22
2018-02-24T00:36:15.538Z,-0.20
2018-02-24T00:37:15.518Z,-0.22
2018-02-24T00:38:15.487Z,-0.22
2018-02-24T00:39:15.467Z,-0.20
2018-02-24T00:40:15.435Z,-0.31
2018-02-24T00:41:15.421Z,-0.20
2018-02-24T00:42:15.397Z,-0.20
2018-02-24T00:43:15.361Z,-0.38
2018-02-24T00:44:15.336Z,-0.32
2018-02-24T00:45:15.311Z,-0.32
2018-02-24T00:46:15.336Z,-0.46
2018-02-24T00:47:15.259Z,-0.43
2018-02-24T00:48:15.344Z,-0.46
2018-02-24T00:49:15.209Z,-0.50
2018-02-24T00:50:15.186Z,-0.50
2018-02-24T00:51:15.158Z,-0.58
2018-02-24T00:52:15.233Z,-0.67
2018-02-24T00:53:15.107Z,-0.58
2018-02-24T00:54:15.230Z,-0.60
2018-02-24T00:55:15.055Z,-0.61
2018-02-24T00:56:15.130Z,-0.63
2018-02-24T00:57:15.019Z,-0.53
2018-02-24T00:58:15.065Z,-0.60
2018-02-24T00:59:14.955Z,-0.73
2018-02-24T01:00:14.943Z,-0.55
2018-02-24T01:01:14.916Z,-0.61
2018-02-24T01:02:14.882Z,-0.66
2018-02-24T01:03:14.858Z,-0.81
2018-02-24T01:04:14.944Z,-0.79
2018-02-24T01:05:14.812Z,-0.75
2018-02-24T01:06:14.788Z,-0.79
2018-02-24T01:07:14.770Z,-0.78
2018-02-24T01:08:14.741Z,-0.73
2018-02-24T01:09:14.705Z,-0.67
2018-02-24T01:10:14.685Z,-0.66
2018-02-24T01:11:14.654Z,-0.53
2018-02-24T01:12:14.628Z,-0.58
2018-02-24T01:13:14.603Z,-0.63
2018-02-24T01:14:14.576Z,-0.58
2018-02-24T01:15:14.558Z,-0.66
2018-02-24T01:16:14.530Z,-0.49
2018-02-24T01:17:14.506Z,-0.46
2018-02-24T01:18:14.476Z,-0.47
2018-02-24T01:19:14.449Z,-0.49
2018-02-24T01:20:14.428Z,-0.60
2018-02-24T01:21:14.399Z,-0.61
2018-02-24T01:22:14.382Z,-0.47
2018-02-24T01:23:14.356Z,-0.46
2018-02-24T01:24:14.328Z,-0.45
2018-02-24T01:25:14.309Z,-0.50
2018-02-24T01:26:14.271Z,-0.60
2018-02-24T01:27:14.251Z,-0.60
2018-02-24T01:28:14.227Z,-0.55
2018-02-24T01:29:14.200Z,-0.66
2018-02-24T01:30:14.182Z,-0.63
2018-02-24T01:31:14.149Z,-0.66
2018-02-24T01:32:14.121Z,-0.52
2018-02-24T01:33:14.142Z,-0.63
2018-02-24T01:34:14.070Z,-0.58
2018-02-24T01:35:14.049Z,-0.63
2018-02-24T01:36:14.020Z,-0.64
2018-02-24T01:37:14.003Z,-0.58
2018-02-24T01:38:13.971Z,-0.68
2018-02-24T01:39:13.949Z,-0.61
2018-02-24T01:40:13.929Z,-0.66
2018-02-24T01:41:13.896Z,-0.75
2018-02-24T01:42:13.866Z,-0.92
2018-02-24T01:43:13.841Z,-0.94
2018-02-24T01:44:13.817Z,-0.84
2018-02-24T01:45:13.789Z,-0.95
2018-02-24T01:46:13.771Z,-0.79
2018-02-24T01:47:13.748Z,-0.81
2018-02-24T01:48:13.715Z,-0.82
2018-02-24T01:49:13.693Z,-0.76
2018-02-24T01:50:13.661Z,-0.68
2018-02-24T01:51:13.642Z,-0.55
2018-02-24T01:52:13.616Z,-0.55
2018-02-24T01:53:13.588Z,-0.58
2018-02-24T01:54:13.561Z,-0.79
2018-02-24T01:55:13.540Z,-0.64
2018-02-24T01:56:13.510Z,-0.82
2018-02-24T01:57:13.487Z,-0.81
2018-02-24T01:58:13.460Z,-0.75
2018-02-24T01:59:13.433Z,-0.89
2018-02-24T02:00:13.407Z,-1.01
2018-02-24T02:01:13.432Z,-1.05
2018-02-24T02:02:13.359Z,-1.01
2018-02-24T02:03:13.332Z,-1.15
2018-02-24T02:04:13.311Z,-1.16
2018-02-24T02:05:13.280Z,-1.16
2018-02-24T02:06:13.256Z,-0.94
2018-02-24T02:07:13.298Z,-0.86
2018-02-24T02:08:13.202Z,-0.66
2018-02-24T02:09:13.233Z,-0.63
2018-02-24T02:10:13.151Z,-0.46
2018-02-24T02:11:13.180Z,-0.49
2018-02-24T02:12:13.100Z,-0.32
2018-02-24T02:13:13.174Z,-0.34
2018-02-24T02:14:13.046Z,-0.40
2018-02-24T02:15:13.024Z,-0.32
2018-02-24T02:16:12.998Z,-0.29
2018-02-24T02:17:13.053Z,-0.34
2018-02-24T02:18:12.949Z,-0.32
2018-02-24T02:19:13.028Z,-0.25
2018-02-24T02:20:12.897Z,-0.24
2018-02-24T02:21:12.869Z,-0.31
2018-02-24T02:22:12.845Z,-0.28
2018-02-24T02:23:12.843Z,-0.47
2018-02-24T02:24:12.794Z,-0.57
2018-02-24T02:25:12.770Z,-0.63
2018-02-24T02:26:12.747Z,-0.60
2018-02-24T02:27:12.717Z,-0.53
2018-02-24T02:28:12.690Z,-0.57
2018-02-24T02:29:12.667Z,-0.58
2018-02-24T02:30:12.640Z,-0.70
2018-02-24T02:31:12.617Z,-0.82
2018-02-24T02:32:12.590Z,-0.90
2018-02-24T02:33:12.573Z,-0.85
2018-02-24T02:34:12.542Z,-0.94
2018-02-24T02:35:12.512Z,-0.79
2018-02-24T02:36:12.493Z,-0.76
2018-02-24T02:37:12.460Z,-0.90
2018-02-24T02:38:12.447Z,-1.01
2018-02-24T02:39:12.409Z,-0.84
2018-02-24T02:40:12.383Z,-0.98
2018-02-24T02:41:12.360Z,-0.95
2018-02-24T02:42:12.330Z,-0.86
2018-02-24T02:43:12.309Z,-1.03
2018-02-24T02:44:12.280Z,-1.00
2018-02-24T02:45:12.263Z,-1.00
2018-02-24T02:46:12.243Z,-1.01
2018-02-24T02:47:12.210Z,-0.95
2018-02-24T02:48:12.180Z,-0.90
2018-02-24T02:49:12.161Z,-0.89
2018-02-24T02:50:12.127Z,-0.89
2018-02-24T02:51:12.109Z,-0.94
2018-02-24T02:52:12.089Z,-1.01
2018-02-24T02:53:12.059Z,-0.98
2018-02-24T02:54:12.028Z,-1.07
2018-02-24T02:55:11.999Z,-1.13
2018-02-24T02:56:11.973Z,-1.05
2018-02-24T02:57:11.952Z,-0.94
2018-02-24T02:58:11.923Z,-0.95
2018-02-24T02:59:11.904Z,-0.90
2018-02-24T03:00:11.872Z,-0.95
2018-02-24T03:01:11.846Z,-0.89
2018-02-24T03:02:11.821Z,-0.82
2018-02-24T03:03:11.801Z,-0.79
2018-02-24T03:04:11.765Z,-0.82
2018-02-24T03:05:11.741Z,-0.76
2018-02-24T03:06:11.713Z,-0.92
2018-02-24T03:07:11.697Z,-0.94
2018-02-24T03:08:11.664Z,-0.86
2018-02-24T03:09:11.641Z,-0.75
2018-02-24T03:10:11.611Z,-0.78
2018-02-24T03:11:11.590Z,-0.71
2018-02-24T03:12:11.610Z,-0.92
2018-02-24T03:13:11.542Z,-1.00
2018-02-24T03:14:11.560Z,-0.95
2018-02-24T03:15:11.487Z,-0.82
2018-02-24T03:16:11.468Z,-0.95
2018-02-24T03:17:11.454Z,-1.03
2018-02-24T03:18:11.413Z,-1.19
2018-02-24T03:19:11.381Z,-1.23
2018-02-24T03:20:11.411Z,-1.15
2018-02-24T03:21:11.333Z,-1.21
2018-02-24T03:22:11.463Z,-1.18
2018-02-24T03:23:11.282Z,-1.11
2018-02-24T03:24:11.357Z,-1.16
2018-02-24T03:25:11.225Z,-1.15
2018-02-24T03:26:11.209Z,-1.13
2018-02-24T03:27:11.176Z,-1.10
2018-02-24T03:28:11.152Z,-1.15
2018-02-24T03:29:11.122Z,-1.03
2018-02-24T03:30:11.103Z,-1.05
2018-02-24T03:31:11.082Z,-1.03
2018-02-24T03:32:11.050Z,-0.89
2018-02-24T03:33:11.022Z,-1.05
2018-02-24T03:34:10.994Z,-0.97
2018-02-24T03:35:10.969Z,-1.01
2018-02-24T03:36:10.944Z,-0.95
2018-02-24T03:37:10.919Z,-0.94
2018-02-24T03:38:10.893Z,-0.98
2018-02-24T03:39:10.872Z,-1.05
2018-02-24T03:40:10.846Z,-0.86
2018-02-24T03:41:10.816Z,-0.95
2018-02-24T03:42:10.792Z,-0.92
2018-02-24T03:43:10.762Z,-0.90
2018-02-24T03:44:10.742Z,-1.04
2018-02-24T03:45:10.713Z,-1.08
2018-02-24T03:46:10.686Z,-1.00
2018-02-24T03:47:10.661Z,-1.11
2018-02-24T03:48:10.638Z,-1.15
2018-02-24T03:49:10.606Z,-1.13
2018-02-24T03:50:10.582Z,-0.98
2018-02-24T03:51:10.556Z,-0.94
2018-02-24T03:52:10.529Z,-1.16
2018-02-24T03:53:10.509Z,-1.07
2018-02-24T03:54:10.479Z,-1.11
2018-02-24T03:55:10.457Z,-1.13
2018-02-24T03:56:10.432Z,-1.25
2018-02-24T03:57:10.399Z,-1.26
2018-02-24T03:58:10.374Z,-1.37
2018-02-24T03:59:10.350Z,-1.23
2018-02-24T04:00:10.324Z,-1.22
2018-02-24T04:01:10.299Z,-1.26
2018-02-24T04:02:10.275Z,-1.19
2018-02-24T04:03:10.243Z,-1.26
2018-02-24T04:05:10.192Z,-1.23
2018-02-24T04:06:10.172Z,-1.05
2018-02-24T04:07:10.143Z,-1.11
2018-02-24T04:08:10.115Z,-1.23
2018-02-24T04:09:10.099Z,-1.25
2018-02-24T04:10:10.061Z,-1.46
2018-02-24T04:11:10.037Z,-1.40
2018-02-24T04:12:10.012Z,-1.37
2018-02-24T04:13:09.991Z,-1.52
2018-02-24T04:14:09.961Z,-1.54
2018-02-24T04:15:09.936Z,-1.47
2018-02-24T04:16:09.910Z,-1.43
2018-02-24T04:17:09.880Z,-1.44
2018-02-24T04:18:09.857Z,-1.37
2018-02-24T04:19:09.829Z,-1.40
2018-02-24T04:20:09.803Z,-1.31
2018-02-24T04:21:09.794Z,-1.25
2018-02-24T04:22:09.750Z,-1.34
2018-02-24T04:23:09.729Z,-1.44
2018-02-24T04:24:09.702Z,-1.43
2018-02-24T04:25:09.723Z,-1.43
2018-02-24T04:26:09.652Z,-1.43
2018-02-24T04:27:09.621Z,-1.51
2018-02-24T04:28:09.606Z,-1.52
2018-02-24T04:29:09.586Z,-1.43
2018-02-24T04:30:09.553Z,-1.55
2018-02-24T04:31:09.622Z,-1.55
2018-02-24T04:32:09.493Z,-1.47
2018-02-24T04:33:09.468Z,-1.36
2018-02-24T04:34:09.443Z,-1.39
2018-02-24T04:35:09.417Z,-1.34
2018-02-24T04:36:09.393Z,-1.41
2018-02-24T04:37:09.362Z,-1.41
2018-02-24T04:38:09.346Z,-1.46
2018-02-24T04:39:09.307Z,-1.40
2018-02-24T04:40:09.282Z,-1.43
2018-02-24T04:41:09.271Z,-1.40
2018-02-24T04:42:09.234Z,-1.29
2018-02-24T04:43:09.204Z,-1.26
2018-02-24T04:44:09.181Z,-1.19
2018-02-24T04:45:09.151Z,-1.15
2018-02-24T04:46:09.132Z,-1.15
2018-02-24T04:47:09.102Z,-1.10
2018-02-24T04:48:09.083Z,-1.13
2018-02-24T04:49:09.049Z,-1.13
2018-02-24T04:50:09.024Z,-1.11
2018-02-24T04:51:08.998Z,-1.21
2018-02-24T04:52:08.972Z,-1.23
2018-02-24T04:53:08.953Z,-1.26
2018-02-24T04:54:08.922Z,-1.33
2018-02-24T04:55:08.892Z,-1.40
2018-02-24T04:56:08.865Z,-1.58
2018-02-24T04:57:08.841Z,-1.67
2018-02-24T04:58:08.811Z,-1.61
2018-02-24T04:59:08.787Z,-1.61
2018-02-24T05:00:08.775Z,-1.58
2018-02-24T05:01:08.751Z,-1.62
2018-02-24T05:02:08.715Z,-1.62
2018-02-24T05:03:08.682Z,-1.54
2018-02-24T05:04:08.661Z,-1.65
2018-02-24T05:05:08.631Z,-1.65
2018-02-24T05:06:08.606Z,-1.62
2018-02-24T05:07:08.582Z,-1.64
2018-02-24T05:08:08.552Z,-1.58
2018-02-24T05:09:08.527Z,-1.54
2018-02-24T05:10:08.505Z,-1.69
2018-02-24T05:11:08.480Z,-1.72
2018-02-24T05:12:08.448Z,-1.78
2018-02-24T05:13:08.422Z,-1.67
2018-02-24T05:14:08.395Z,-1.62
2018-02-24T05:15:08.371Z,-1.47
2018-02-24T05:16:08.346Z,-1.40
2018-02-24T05:17:08.320Z,-1.43
2018-02-24T05:18:08.291Z,-1.34
2018-02-24T05:19:08.265Z,-1.31
2018-02-24T05:20:08.240Z,-1.28
2018-02-24T05:21:08.214Z,-1.29
2018-02-24T05:22:08.198Z,-1.26
2018-02-24T05:23:08.163Z,-1.41
2018-02-24T05:24:08.140Z,-1.39
2018-02-24T05:25:08.106Z,-1.28
2018-02-24T05:26:08.081Z,-1.28
2018-02-24T05:27:08.066Z,-1.25
2018-02-24T05:28:08.081Z,-1.28
2018-02-24T05:29:08.002Z,-1.25
2018-02-24T05:30:07.978Z,-1.11
2018-02-24T05:31:07.953Z,-1.07
2018-02-24T05:32:07.925Z,-1.15
2018-02-24T05:33:07.899Z,-1.03
2018-02-24T05:34:07.870Z,-0.97
2018-02-24T05:35:07.844Z,-0.95
2018-02-24T05:36:07.851Z,-0.90
2018-02-24T05:37:07.797Z,-1.18
2018-02-24T05:38:07.819Z,-1.11
2018-02-24T05:39:07.743Z,-1.18
2018-02-24T05:40:07.719Z,-1.22
2018-02-24T05:41:07.689Z,-1.21
2018-02-24T05:42:07.663Z,-1.18
2018-02-24T05:43:07.640Z,-1.19
2018-02-24T05:44:07.618Z,-1.21
2018-02-24T05:45:07.590Z,-1.40
2018-02-24T05:46:07.563Z,-1.44
2018-02-24T05:47:07.534Z,-1.52
2018-02-24T05:48:07.511Z,-1.55
2018-02-24T05:49:07.488Z,-1.67
2018-02-24T05:50:07.461Z,-1.61
2018-02-24T05:51:07.430Z,-1.69
2018-02-24T05:52:07.409Z,-1.59
2018-02-24T05:53:07.380Z,-1.52
2018-02-24T05:54:07.360Z,-1.51
2018-02-24T05:55:07.330Z,-1.44
2018-02-24T05:56:07.308Z,-1.43
2018-02-24T05:57:07.284Z,-1.40
2018-02-24T05:58:07.250Z,-1.41
2018-02-24T05:59:07.225Z,-1.40
2018-02-24T06:00:07.196Z,-1.51
2018-02-24T06:01:07.171Z,-1.49
2018-02-24T06:02:07.151Z,-1.59
2018-02-24T06:03:07.119Z,-1.55
2018-02-24T06:04:07.099Z,-1.43
2018-02-24T06:05:07.068Z,-1.57
2018-02-24T06:06:07.042Z,-1.52
2018-02-24T06:07:07.016Z,-1.57
2018-02-24T06:08:06.989Z,-1.49
2018-02-24T06:09:06.962Z,-1.39
2018-02-24T06:10:06.940Z,-1.47
2018-02-24T06:11:06.910Z,-1.46
2018-02-24T06:12:06.879Z,-1.46
2018-02-24T06:13:06.859Z,-1.31
2018-02-24T06:14:06.828Z,-1.39
2018-02-24T06:15:06.808Z,-1.41
2018-02-24T06:16:06.778Z,-1.44
2018-02-24T06:17:06.759Z,-1.46
2018-02-24T06:18:06.726Z,-1.44
2018-02-24T06:19:06.702Z,-1.47
2018-02-24T06:20:06.677Z,-1.46
2018-02-24T06:21:06.648Z,-1.39
2018-02-24T06:22:06.624Z,-1.29
2018-02-24T06:23:06.602Z,-1.36
2018-02-24T06:24:06.572Z,-1.37
2018-02-24T06:25:06.543Z,-1.44
2018-02-24T06:26:06.516Z,-1.58
2018-02-24T06:27:06.488Z,-1.47
2018-02-24T06:28:06.463Z,-1.43
2018-02-24T06:29:06.435Z,-1.46
2018-02-24T06:30:06.411Z,-1.58
2018-02-24T06:31:06.391Z,-1.79
2018-02-24T06:32:06.358Z,-1.93
2018-02-24T06:33:06.335Z,-1.93
2018-02-24T06:34:06.309Z,-1.83
2018-02-24T06:35:06.283Z,-1.79
2018-02-24T06:36:06.253Z,-1.94
2018-02-24T06:37:06.228Z,-1.80
2018-02-24T06:38:06.200Z,-1.76
2018-02-24T06:39:06.178Z,-1.61
2018-02-24T06:40:06.150Z,-1.59
2018-02-24T06:41:06.128Z,-1.54
2018-02-24T06:42:06.099Z,-1.51
2018-02-24T06:43:06.079Z,-1.52
2018-02-24T06:44:06.058Z,-1.54
2018-02-24T06:45:06.022Z,-1.65
2018-02-24T06:46:05.992Z,-1.64
2018-02-24T06:47:05.969Z,-1.62
2018-02-24T06:48:05.941Z,-1.57
2018-02-24T06:49:05.914Z,-1.37
2018-02-24T06:50:05.890Z,-1.55
2018-02-24T06:51:05.862Z,-1.64
2018-02-24T06:52:05.843Z,-1.61
2018-02-24T06:53:05.810Z,-1.61
2018-02-24T06:54:05.782Z,-1.61
2018-02-24T06:55:05.757Z,-1.54
2018-02-24T06:56:05.734Z,-1.22
2018-02-24T06:57:05.736Z,-1.10
2018-02-24T06:58:05.685Z,-0.75
2018-02-24T06:59:05.660Z,-0.34
2018-02-24T07:00:05.632Z,-0.04
2018-02-24T07:01:05.607Z,0.02
2018-02-24T07:02:05.588Z,0.18
2018-02-24T07:03:05.560Z,0.12
2018-02-24T07:04:05.537Z,0.32
2018-02-24T07:05:05.518Z,0.32
2018-02-24T07:06:05.489Z,0.43
2018-02-24T07:07:05.473Z,0.23
2018-02-24T07:08:05.450Z,0.18
2018-02-24T07:09:05.428Z,0.20
2018-02-24T07:10:05.408Z,0.44
2018-02-24T07:11:05.378Z,0.92
2018-02-24T07:12:05.358Z,1.09
2018-02-24T07:13:05.341Z,1.26
2018-02-24T07:14:05.319Z,1.53
2018-02-24T07:15:05.294Z,1.78
2018-02-24T07:16:05.271Z,1.77
2018-02-24T07:17:05.251Z,1.66
2018-02-24T07:18:05.229Z,1.66
2018-02-24T07:19:05.210Z,2.01
2018-02-24T07:20:05.188Z,2.10
2018-02-24T07:21:05.166Z,1.75
2018-02-24T07:22:05.149Z,1.92
2018-02-24T07:23:05.125Z,2.35
2018-02-24T07:24:05.107Z,2.55
2018-02-24T07:25:05.087Z,2.73
2018-02-24T07:26:05.101Z,3.02
2018-02-24T07:27:05.056Z,3.45
2018-02-24T07:28:05.033Z,3.67
2018-02-24T07:29:05.019Z,3.45
2018-02-24T07:30:05.000Z,3.82
2018-02-24T07:31:04.985Z,4.27
2018-02-24T07:32:04.961Z,4.46
2018-02-24T07:33:04.951Z,4.35
2018-02-24T07:34:04.931Z,4.48
2018-02-24T07:35:04.921Z,4.69
2018-02-24T07:36:04.906Z,5.15
2018-02-24T07:37:04.896Z,5.25
2018-02-24T07:38:04.870Z,5.43
2018-02-24T07:39:04.860Z,5.16
2018-02-24T07:40:04.842Z,4.64
2018-02-24T07:41:04.890Z,4.97
2018-02-24T07:42:04.816Z,4.86
2018-02-24T07:43:04.848Z,4.85
2018-02-24T07:44:04.780Z,4.89
2018-02-24T07:45:04.773Z,4.96
2018-02-24T07:46:04.751Z,5.41
2018-02-24T07:47:04.797Z,5.48
2018-02-24T07:48:04.733Z,5.51
2018-02-24T07:49:04.793Z,5.87
2018-02-24T07:50:04.704Z,6.25
2018-02-24T07:51:04.791Z,6.02
2018-02-24T07:52:04.681Z,6.05
2018-02-24T07:53:04.768Z,6.96
2018-02-24T07:54:04.651Z,6.60
2018-02-24T07:55:04.668Z,6.79
2018-02-24T07:56:04.626Z,6.89
2018-02-24T07:57:04.720Z,5.87
2018-02-24T07:58:04.609Z,6.34
2018-02-24T07:59:04.651Z,6.56
2018-02-24T08:00:04.584Z,7.03
2018-02-24T08:01:04.621Z,7.16
2018-02-24T08:02:04.559Z,7.40
2018-02-24T08:03:04.556Z,7.57
2018-02-24T08:04:04.538Z,8.02
2018-02-24T08:05:04.531Z,8.95
2018-02-24T08:06:04.514Z,9.42
2018-02-24T08:07:04.500Z,9.04
2018-02-24T08:08:04.488Z,8.46
2018-02-24T08:09:04.489Z,7.36
2018-02-24T08:10:04.474Z,6.85
2018-02-24T08:11:04.474Z,7.47
2018-02-24T08:12:04.449Z,7.57
2018-02-24T08:13:04.441Z,7.34
2018-02-24T08:14:04.427Z,7.76
2018-02-24T08:15:04.420Z,8.57
2018-02-24T08:16:04.411Z,9.52
2018-02-24T08:17:04.402Z,9.37
2018-02-24T08:18:04.390Z,8.96
2018-02-24T08:19:04.381Z,8.29
2018-02-24T08:20:04.373Z,7.29
2018-02-24T08:21:04.370Z,7.62
2018-02-24T08:22:04.356Z,8.41
2018-02-24T08:23:04.343Z,8.04
2018-02-24T08:24:04.340Z,8.52
2018-02-24T08:25:04.330Z,9.03
2018-02-24T08:26:04.315Z,9.27
2018-02-24T08:27:04.308Z,8.90
2018-02-24T08:28:04.304Z,10.08
2018-02-24T08:29:04.289Z,9.91
2018-02-24T08:30:04.281Z,9.47
2018-02-24T08:31:04.273Z,9.72
2018-02-24T08:32:04.260Z,10.27
2018-02-24T08:33:04.266Z,9.33
2018-02-24T08:34:04.256Z,9.19
2018-02-24T08:35:04.241Z,9.63
2018-02-24T08:36:04.263Z,9.11
2018-02-24T08:37:04.220Z,8.68
2018-02-24T08:38:04.213Z,8.96
2018-02-24T08:39:04.256Z,10.14
2018-02-24T08:40:04.198Z,10.90
2018-02-24T08:41:04.191Z,10.54
2018-02-24T08:42:04.210Z,11.03
2018-02-24T08:43:04.174Z,11.37
2018-02-24T08:44:04.164Z,11.51
2018-02-24T08:45:04.162Z,10.12
2018-02-24T08:46:04.151Z,9.98
2018-02-24T08:47:04.152Z,9.41
2018-02-24T08:48:04.137Z,9.60
2018-02-24T08:49:04.133Z,8.13
2018-02-24T08:50:04.119Z,7.73
2018-02-24T08:51:04.119Z,7.83
2018-02-24T08:52:04.106Z,8.74
2018-02-24T08:53:04.100Z,8.26
2018-02-24T08:54:04.089Z,7.99
2018-02-24T08:55:04.084Z,8.60
2018-02-24T08:56:04.086Z,7.83
2018-02-24T08:57:04.084Z,7.13
2018-02-24T08:58:04.062Z,6.42
2018-02-24T08:59:04.057Z,7.52
2018-02-24T09:00:04.047Z,8.57
2018-02-24T09:01:04.038Z,9.27
2018-02-24T09:02:04.032Z,9.26
2018-02-24T09:03:04.029Z,8.81
2018-02-24T09:04:04.017Z,8.70
2018-02-24T09:05:04.009Z,7.98
2018-02-24T09:06:03.995Z,8.20
2018-02-24T09:07:04.000Z,8.21
2018-02-24T09:08:03.994Z,9.77
2018-02-24T09:09:03.985Z,9.80
2018-02-24T09:10:03.971Z,11.00
2018-02-24T09:11:03.959Z,11.70
2018-02-24T09:12:03.950Z,11.30
2018-02-24T09:13:03.970Z,10.97
2018-02-24T09:14:03.942Z,11.38
2018-02-24T09:15:03.931Z,10.48
2018-02-24T09:16:03.918Z,10.70
2018-02-24T09:17:03.922Z,10.05
2018-02-24T09:18:03.904Z,10.38
2018-02-24T09:19:03.953Z,10.42
2018-02-24T09:20:03.898Z,8.56
2018-02-24T09:21:03.884Z,9.23
2018-02-24T09:22:03.872Z,9.78
2018-02-24T09:23:03.868Z,10.01
2018-02-24T09:24:03.860Z,9.29
2018-02-24T09:25:03.848Z,9.60
2018-02-24T09:26:03.841Z,8.68
2018-02-24T09:27:03.841Z,9.27
2018-02-24T09:28:03.832Z,8.92
2018-02-24T09:29:03.818Z,8.88
2018-02-24T09:30:03.810Z,9.26
2018-02-24T09:31:03.800Z,9.50
2018-02-24T09:32:03.796Z,9.40
2018-02-24T09:33:03.788Z,9.94
2018-02-24T09:34:03.782Z,10.14
2018-02-24T09:35:03.769Z,10.57
2018-02-24T09:36:03.759Z,9.62
2018-02-24T09:37:03.751Z,8.89
2018-02-24T09:38:03.739Z,8.37
2018-02-24T09:39:03.745Z,8.09
2018-02-24T09:40:03.725Z,8.37
2018-02-24T09:41:03.723Z,8.10
2018-02-24T09:42:03.713Z,8.38
2018-02-24T09:43:03.739Z,8.14
2018-02-24T09:44:03.693Z,8.20
2018-02-24T09:45:03.684Z,8.23
2018-02-24T09:46:03.670Z,8.57
2018-02-24T09:47:03.658Z,8.39
2018-02-24T09:48:03.649Z,8.56
2018-02-24T09:49:03.651Z,9.54
2018-02-24T09:50:03.638Z,8.68
2018-02-24T09:51:03.623Z,8.26
2018-02-24T09:52:03.612Z,8.35
2018-02-24T09:53:03.599Z,8.55
2018-02-24T09:54:03.589Z,8.46
2018-02-24T09:55:03.587Z,8.20
2018-02-24T09:56:03.569Z,8.09
2018-02-24T09:57:03.561Z,8.90
2018-02-24T09:58:03.551Z,8.35
2018-02-24T09:59:03.543Z,7.99
2018-02-24T10:00:03.532Z,7.96
2018-02-24T10:01:03.516Z,8.55
2018-02-24T10:02:03.517Z,9.06
2018-02-24T10:03:03.501Z,9.04
2018-02-24T10:04:03.486Z,8.60
2018-02-24T10:05:03.480Z,8.05
2018-02-24T10:06:03.461Z,7.77
2018-02-24T10:07:03.457Z,8.37
2018-02-24T10:08:03.444Z,8.68
2018-02-24T10:09:03.437Z,8.63
2018-02-24T10:10:03.421Z,9.37
2018-02-24T10:11:03.406Z,10.23
2018-02-24T10:12:03.399Z,10.87
2018-02-24T10:13:03.382Z,10.36
2018-02-24T10:14:03.372Z,10.09
2018-02-24T10:15:03.410Z,10.21
2018-02-24T10:16:03.435Z,10.52
2018-02-24T10:17:03.337Z,10.01
2018-02-24T10:18:03.420Z,10.06
2018-02-24T10:19:03.310Z,10.35
2018-02-24T10:20:03.352Z,10.09
2018-02-24T10:21:03.289Z,9.57
2018-02-24T10:22:03.428Z,10.39
2018-02-24T10:23:03.269Z,10.64
2018-02-24T10:24:03.342Z,10.79
2018-02-24T10:25:03.239Z,11.09
2018-02-24T10:26:03.282Z,10.23
2018-02-24T10:27:03.218Z,10.76
2018-02-24T10:28:03.305Z,10.39
2018-02-24T10:29:03.200Z,9.62
2018-02-24T10:30:03.178Z,9.01
2018-02-24T10:31:03.166Z,8.89
2018-02-24T10:32:03.158Z,8.49
2018-02-24T10:33:03.157Z,8.44
2018-02-24T10:34:03.133Z,8.32
2018-02-24T10:35:03.114Z,8.28
2018-02-24T10:36:03.110Z,9.19
2018-02-24T10:37:03.098Z,9.84
2018-02-24T10:38:03.079Z,10.55
2018-02-24T10:39:03.063Z,11.16
2018-02-24T10:40:03.056Z,10.49
2018-02-24T10:41:03.039Z,10.91
2018-02-24T10:42:03.070Z,10.45
2018-02-24T10:43:03.016Z,9.87
2018-02-24T10:44:03.009Z,9.78
2018-02-24T10:45:02.989Z,9.87
2018-02-24T10:46:02.979Z,10.38
2018-02-24T10:47:02.961Z,10.10
2018-02-24T10:48:02.947Z,10.61
2018-02-24T10:49:02.985Z,11.09
2018-02-24T10:50:02.919Z,10.26
2018-02-24T10:51:02.907Z,10.18
2018-02-24T10:52:02.899Z,10.26
2018-02-24T10:53:02.883Z,9.26
2018-02-24T10:54:02.896Z,9.14
2018-02-24T10:55:02.857Z,9.32
2018-02-24T10:56:02.842Z,9.34
2018-02-24T10:57:02.830Z,8.81
2018-02-24T10:58:02.819Z,9.65
2018-02-24T10:59:02.804Z,10.08
2018-02-24T11:00:02.791Z,9.98
2018-02-24T11:01:02.773Z,9.59
2018-02-24T11:02:02.758Z,9.33
2018-02-24T11:03:02.754Z,9.57
2018-02-24T11:04:02.742Z,9.78
2018-02-24T11:05:02.729Z,9.44
2018-02-24T11:06:02.709Z,9.33
2018-02-24T11:07:02.690Z,8.70
2018-02-24T11:08:02.679Z,7.64
2018-02-24T11:09:02.664Z,7.10
2018-02-24T11:10:02.650Z,6.86
2018-02-24T11:11:02.638Z,7.00
2018-02-24T11:12:02.625Z,7.43
2018-02-24T11:13:02.611Z,7.03
2018-02-24T11:14:02.594Z,6.60
2018-02-24T11:15:02.583Z,6.27
2018-02-24T11:16:02.562Z,5.84
2018-02-24T11:17:02.546Z,6.37
2018-02-24T11:18:02.531Z,6.40
2018-02-24T11:19:02.519Z,5.87
2018-02-24T11:20:02.510Z,5.59
2018-02-24T11:21:02.483Z,5.44
2018-02-24T11:22:02.467Z,5.77
2018-02-24T11:23:02.450Z,5.58
2018-02-24T11:24:02.438Z,5.09
2018-02-24T11:25:02.423Z,5.39
2018-02-24T11:26:02.399Z,6.05
2018-02-24T11:27:02.393Z,6.74
2018-02-24T11:28:02.363Z,7.11
2018-02-24T11:29:02.402Z,7.22
2018-02-24T11:30:02.333Z,7.04
2018-02-24T11:31:02.313Z,6.92
2018-02-24T11:32:02.305Z,6.75
2018-02-24T11:33:02.280Z,7.11
2018-02-24T11:34:02.271Z,7.13
2018-02-24T11:35:02.246Z,7.04
2018-02-24T11:36:02.242Z,7.01
2018-02-24T11:37:02.217Z,7.10
2018-02-24T11:38:02.198Z,7.54
2018-02-24T11:39:02.178Z,8.05
2018-02-24T11:40:02.163Z,7.99
2018-02-24T11:41:02.154Z,8.56
2018-02-24T11:42:02.128Z,8.57
2018-02-24T11:43:02.109Z,8.47
2018-02-24T11:44:02.099Z,8.83
2018-02-24T11:45:02.080Z,8.16
2018-02-24T11:46:02.073Z,7.46
2018-02-24T11:47:02.044Z,7.29
2018-02-24T11:48:02.039Z,7.52
2018-02-24T11:49:02.026Z,7.07
2018-02-24T11:50:01.996Z,7.33
2018-02-24T11:51:01.996Z,7.24
2018-02-24T11:52:01.966Z,7.10
2018-02-24T11:53:02.094Z,6.56
2018-02-24T11:54:01.932Z,6.02
2018-02-24T11:55:02.007Z,5.97
2018-02-24T11:56:01.899Z,6.67
2018-02-24T11:57:01.926Z,7.00
2018-02-24T11:58:01.870Z,7.52
2018-02-24T11:59:01.855Z,6.96
2018-02-24T12:00:01.840Z,6.45
2018-02-24T12:01:01.835Z,6.52
2018-02-24T12:02:01.800Z,6.81
2018-02-24T12:03:01.841Z,7.04
2018-02-24T12:04:01.765Z,7.33
2018-02-24T12:05:01.751Z,7.66
2018-02-24T12:06:01.742Z,7.43
2018-02-24T12:07:01.718Z,7.31
2018-02-24T12:08:01.701Z,7.15
2018-02-24T12:09:01.681Z,7.55
2018-02-24T12:10:01.662Z,7.47
2018-02-24T12:11:01.654Z,7.25
2018-02-24T12:12:01.629Z,7.47
2018-02-24T12:13:01.610Z,7.24
2018-02-24T12:14:01.589Z,7.24
2018-02-24T12:15:01.575Z,7.08
2018-02-24T12:16:01.555Z,6.60
2018-02-24T12:17:01.542Z,6.52
2018-02-24T12:18:01.521Z,6.61
2018-02-24T12:19:01.505Z,5.61
2018-02-24T12:20:01.489Z,5.41
2018-02-24T12:21:01.477Z,5.03
2018-02-24T12:22:01.445Z,4.88
2018-02-24T12:23:01.432Z,4.86
2018-02-24T12:24:01.409Z,5.07
2018-02-24T12:25:01.397Z,5.33
2018-02-24T12:26:01.376Z,5.12
2018-02-24T12:27:01.362Z,5.06
2018-02-24T12:28:01.335Z,5.33
2018-02-24T12:29:01.316Z,5.57
2018-02-24T12:30:01.300Z,5.70
2018-02-24T12:31:01.281Z,5.67
2018-02-24T12:32:01.258Z,5.76
2018-02-24T12:33:01.257Z,5.72
2018-02-24T12:34:01.241Z,5.51
2018-02-24T12:35:01.201Z,5.15
2018-02-24T12:36:01.181Z,5.16
2018-02-24T12:37:01.171Z,5.34
2018-02-24T12:38:01.154Z,5.66
2018-02-24T12:39:01.131Z,5.27
2018-02-24T12:40:01.110Z,5.36
2018-02-24T12:41:01.091Z,5.24
2018-02-24T12:42:01.072Z,4.85
2018-02-24T12:43:01.051Z,4.79
2018-02-24T12:44:01.028Z,4.86
2018-02-24T12:45:01.034Z,5.32
2018-02-24T12:46:00.986Z,5.30
2018-02-24T12:47:00.967Z,5.58
2018-02-24T12:48:00.947Z,5.24
2018-02-24T12:49:00.923Z,5.32
2018-02-24T12:50:00.904Z,5.37
2018-02-24T12:51:00.889Z,5.14
2018-02-24T12:52:00.865Z,4.72
2018-02-24T12:53:00.849Z,5.00
2018-02-24T12:54:00.828Z,5.66
2018-02-24T12:55:00.810Z,5.58
2018-02-24T12:56:00.790Z,5.27
2018-02-24T12:57:00.764Z,5.01
2018-02-24T12:58:00.764Z,4.83
2018-02-24T12:59:00.730Z,4.72
2018-02-24T13:00:00.720Z,4.74
2018-02-24T13:01:00.692Z,4.74
2018-02-24T13:02:00.671Z,4.35
2018-02-24T13:03:00.722Z,4.28